sensor_id;sensor_type;location;lat;lon;timestamp;P1;durP1;ratioP1;P2;durP2;ratioP2
84616;SDS011;74846;51.126;16.944;2024-01-30T00:02:25;16.10;;;6.80;;
84616;SDS011;74846;51.126;16.944;2024-01-30T00:04:53;19.00;;;8.50;;
84616;SDS011;74846;51.126;16.944;2024-01-30T00:07:21;15.50;;;7.30;;
84616;SDS011;74846;51.126;16.944;2024-01-30T00:09:49;13.30;;;7.40;;
84616;SDS011;74846;51.126;16.944;2024-01-30T00:12:17;17.10;;;7.20;;
84616;SDS011;74846;51.126;16.944;2024-01-30T00:14:45;14.80;;;6.90;;
84616;SDS011;74846;51.126;16.944;2024-01-30T00:17:13;16.30;;;7.10;;
84616;SDS011;74846;51.126;16.944;2024-01-30T00:19:42;18.10;;;7.70;;
84616;SDS011;74846;51.126;16.944;2024-01-30T00:22:10;14.80;;;7.60;;
84616;SDS011;74846;51.126;16.944;2024-01-30T00:24:38;13.50;;;7.50;;
84616;SDS011;74846;51.126;16.944;2024-01-30T00:27:07;14.60;;;7.30;;
84616;SDS011;74846;51.126;16.944;2024-01-30T00:29:36;15.80;;;7.70;;
84616;SDS011;74846;51.126;16.944;2024-01-30T00:32:04;14.20;;;7.50;;
84616;SDS011;74846;51.126;16.944;2024-01-30T00:34:32;17.60;;;7.70;;
84616;SDS011;74846;51.126;16.944;2024-01-30T00:37:00;14.90;;;7.40;;
84616;SDS011;74846;51.126;16.944;2024-01-30T00:39:28;20.80;;;7.60;;
84616;SDS011;74846;51.126;16.944;2024-01-30T00:41:56;16.30;;;7.80;;
84616;SDS011;74846;51.126;16.944;2024-01-30T00:44:24;15.40;;;7.70;;
84616;SDS011;74846;51.126;16.944;2024-01-30T00:46:52;14.00;;;6.80;;
84616;SDS011;74846;51.126;16.944;2024-01-30T00:49:20;18.20;;;7.00;;
84616;SDS011;74846;51.126;16.944;2024-01-30T00:51:48;17.50;;;7.90;;
84616;SDS011;74846;51.126;16.944;2024-01-30T00:54:16;16.40;;;6.80;;
84616;SDS011;74846;51.126;16.944;2024-01-30T00:56:45;15.20;;;6.80;;
84616;SDS011;74846;51.126;16.944;2024-01-30T00:59:13;13.50;;;7.30;;
84616;SDS011;74846;51.126;16.944;2024-01-30T01:01:41;16.80;;;7.90;;
84616;SDS011;74846;51.126;16.944;2024-01-30T01:04:09;15.50;;;7.60;;
84616;SDS011;74846;51.126;16.944;2024-01-30T01:06:38;13.40;;;7.10;;
84616;SDS011;74846;51.126;16.944;2024-01-30T01:09:06;16.70;;;7.70;;
84616;SDS011;74846;51.126;16.944;2024-01-30T01:11:34;16.40;;;8.10;;
84616;SDS011;74846;51.126;16.944;2024-01-30T01:14:03;15.10;;;6.60;;
84616;SDS011;74846;51.126;16.944;2024-01-30T01:16:32;12.00;;;6.50;;
84616;SDS011;74846;51.126;16.944;2024-01-30T01:19:01;16.20;;;7.90;;
84616;SDS011;74846;51.126;16.944;2024-01-30T01:21:29;18.10;;;7.00;;
84616;SDS011;74846;51.126;16.944;2024-01-30T01:23:57;11.80;;;6.70;;
84616;SDS011;74846;51.126;16.944;2024-01-30T01:26:25;14.60;;;7.10;;
84616;SDS011;74846;51.126;16.944;2024-01-30T01:28:53;12.30;;;6.70;;
84616;SDS011;74846;51.126;16.944;2024-01-30T01:31:21;18.30;;;6.70;;
84616;SDS011;74846;51.126;16.944;2024-01-30T01:33:52;13.60;;;6.90;;
84616;SDS011;74846;51.126;16.944;2024-01-30T01:36:20;13.20;;;6.60;;
84616;SDS011;74846;51.126;16.944;2024-01-30T01:38:49;15.20;;;6.80;;
84616;SDS011;74846;51.126;16.944;2024-01-30T01:41:16;14.90;;;6.80;;
84616;SDS011;74846;51.126;16.944;2024-01-30T01:43:44;15.70;;;6.90;;
84616;SDS011;74846;51.126;16.944;2024-01-30T01:46:13;19.50;;;6.40;;
84616;SDS011;74846;51.126;16.944;2024-01-30T01:48:41;16.60;;;6.30;;
84616;SDS011;74846;51.126;16.944;2024-01-30T01:51:11;15.50;;;7.00;;
84616;SDS011;74846;51.126;16.944;2024-01-30T01:53:39;14.30;;;7.00;;
84616;SDS011;74846;51.126;16.944;2024-01-30T01:56:07;18.20;;;8.30;;
84616;SDS011;74846;51.126;16.944;2024-01-30T01:58:35;16.60;;;8.50;;
84616;SDS011;74846;51.126;16.944;2024-01-30T02:01:04;17.40;;;8.00;;
84616;SDS011;74846;51.126;16.944;2024-01-30T02:03:32;12.50;;;6.80;;
84616;SDS011;74846;51.126;16.944;2024-01-30T02:06:02;13.50;;;7.00;;
84616;SDS011;74846;51.126;16.944;2024-01-30T02:08:30;14.80;;;7.10;;
84616;SDS011;74846;51.126;16.944;2024-01-30T02:10:59;14.80;;;7.20;;
84616;SDS011;74846;51.126;16.944;2024-01-30T02:13:27;12.70;;;6.50;;
84616;SDS011;74846;51.126;16.944;2024-01-30T02:15:56;18.20;;;6.90;;
84616;SDS011;74846;51.126;16.944;2024-01-30T02:18:24;14.80;;;6.40;;
84616;SDS011;74846;51.126;16.944;2024-01-30T02:20:53;11.90;;;6.40;;
84616;SDS011;74846;51.126;16.944;2024-01-30T02:23:24;17.50;;;6.90;;
84616;SDS011;74846;51.126;16.944;2024-01-30T02:25:55;14.30;;;7.00;;
84616;SDS011;74846;51.126;16.944;2024-01-30T02:28:23;15.40;;;7.00;;
84616;SDS011;74846;51.126;16.944;2024-01-30T02:30:51;14.50;;;6.80;;
84616;SDS011;74846;51.126;16.944;2024-01-30T02:33:19;20.60;;;8.40;;
84616;SDS011;74846;51.126;16.944;2024-01-30T02:35:49;15.20;;;7.90;;
84616;SDS011;74846;51.126;16.944;2024-01-30T02:38:17;11.20;;;6.90;;
84616;SDS011;74846;51.126;16.944;2024-01-30T02:40:45;16.40;;;7.40;;
84616;SDS011;74846;51.126;16.944;2024-01-30T02:43:13;14.10;;;7.10;;
84616;SDS011;74846;51.126;16.944;2024-01-30T02:45:41;16.80;;;8.10;;
84616;SDS011;74846;51.126;16.944;2024-01-30T02:48:09;17.60;;;7.20;;
84616;SDS011;74846;51.126;16.944;2024-01-30T02:50:37;17.30;;;6.30;;
84616;SDS011;74846;51.126;16.944;2024-01-30T02:53:05;11.20;;;6.70;;
84616;SDS011;74846;51.126;16.944;2024-01-30T02:55:33;12.40;;;7.00;;
84616;SDS011;74846;51.126;16.944;2024-01-30T02:58:01;15.80;;;6.70;;
84616;SDS011;74846;51.126;16.944;2024-01-30T03:00:29;14.60;;;7.50;;
84616;SDS011;74846;51.126;16.944;2024-01-30T03:02:57;15.00;;;7.70;;
84616;SDS011;74846;51.126;16.944;2024-01-30T03:05:25;14.30;;;6.30;;
84616;SDS011;74846;51.126;16.944;2024-01-30T03:07:53;13.50;;;7.30;;
84616;SDS011;74846;51.126;16.944;2024-01-30T03:10:21;16.50;;;7.70;;
84616;SDS011;74846;51.126;16.944;2024-01-30T03:12:49;15.30;;;7.60;;
84616;SDS011;74846;51.126;16.944;2024-01-30T03:15:17;13.50;;;6.70;;
84616;SDS011;74846;51.126;16.944;2024-01-30T03:17:45;12.00;;;6.60;;
84616;SDS011;74846;51.126;16.944;2024-01-30T03:20:13;16.10;;;6.00;;
84616;SDS011;74846;51.126;16.944;2024-01-30T03:22:41;15.30;;;6.90;;
84616;SDS011;74846;51.126;16.944;2024-01-30T03:25:09;16.00;;;7.40;;
84616;SDS011;74846;51.126;16.944;2024-01-30T03:27:37;16.20;;;8.00;;
84616;SDS011;74846;51.126;16.944;2024-01-30T03:30:05;12.10;;;7.20;;
84616;SDS011;74846;51.126;16.944;2024-01-30T03:32:34;21.40;;;7.20;;
84616;SDS011;74846;51.126;16.944;2024-01-30T03:35:02;11.60;;;7.20;;
84616;SDS011;74846;51.126;16.944;2024-01-30T03:37:30;20.90;;;7.70;;
84616;SDS011;74846;51.126;16.944;2024-01-30T03:39:58;19.00;;;8.30;;
84616;SDS011;74846;51.126;16.944;2024-01-30T03:42:27;16.40;;;6.90;;
84616;SDS011;74846;51.126;16.944;2024-01-30T03:44:56;19.10;;;8.50;;
84616;SDS011;74846;51.126;16.944;2024-01-30T03:47:24;19.20;;;7.30;;
84616;SDS011;74846;51.126;16.944;2024-01-30T03:49:52;13.10;;;6.90;;
84616;SDS011;74846;51.126;16.944;2024-01-30T03:52:20;16.80;;;7.00;;
84616;SDS011;74846;51.126;16.944;2024-01-30T03:54:49;14.80;;;7.30;;
84616;SDS011;74846;51.126;16.944;2024-01-30T03:57:17;16.50;;;6.70;;
84616;SDS011;74846;51.126;16.944;2024-01-30T03:59:45;17.60;;;8.10;;
84616;SDS011;74846;51.126;16.944;2024-01-30T04:02:13;19.40;;;9.10;;
84616;SDS011;74846;51.126;16.944;2024-01-30T04:04:41;15.80;;;7.80;;
84616;SDS011;74846;51.126;16.944;2024-01-30T04:07:09;16.80;;;8.70;;
84616;SDS011;74846;51.126;16.944;2024-01-30T04:09:38;14.60;;;8.10;;
84616;SDS011;74846;51.126;16.944;2024-01-30T04:12:06;17.30;;;8.30;;
84616;SDS011;74846;51.126;16.944;2024-01-30T04:14:34;15.90;;;8.40;;
84616;SDS011;74846;51.126;16.944;2024-01-30T04:17:03;21.10;;;7.60;;
84616;SDS011;74846;51.126;16.944;2024-01-30T04:19:31;19.80;;;8.20;;
84616;SDS011;74846;51.126;16.944;2024-01-30T04:21:59;16.10;;;7.40;;
84616;SDS011;74846;51.126;16.944;2024-01-30T04:24:27;18.60;;;8.90;;
84616;SDS011;74846;51.126;16.944;2024-01-30T04:26:58;17.10;;;8.20;;
84616;SDS011;74846;51.126;16.944;2024-01-30T04:29:26;16.20;;;8.30;;
84616;SDS011;74846;51.126;16.944;2024-01-30T04:31:54;12.30;;;6.90;;
84616;SDS011;74846;51.126;16.944;2024-01-30T04:34:22;17.00;;;8.60;;
84616;SDS011;74846;51.126;16.944;2024-01-30T04:36:50;21.10;;;9.50;;
84616;SDS011;74846;51.126;16.944;2024-01-30T04:39:18;22.60;;;9.10;;
84616;SDS011;74846;51.126;16.944;2024-01-30T04:41:46;14.30;;;7.80;;
84616;SDS011;74846;51.126;16.944;2024-01-30T04:44:15;19.10;;;8.60;;
84616;SDS011;74846;51.126;16.944;2024-01-30T04:46:43;15.80;;;7.80;;
84616;SDS011;74846;51.126;16.944;2024-01-30T04:49:12;20.20;;;9.90;;
84616;SDS011;74846;51.126;16.944;2024-01-30T04:51:40;14.60;;;8.20;;
84616;SDS011;74846;51.126;16.944;2024-01-30T04:54:08;16.70;;;9.00;;
84616;SDS011;74846;51.126;16.944;2024-01-30T04:56:36;18.50;;;6.90;;
84616;SDS011;74846;51.126;16.944;2024-01-30T04:59:04;25.50;;;10.50;;
84616;SDS011;74846;51.126;16.944;2024-01-30T05:01:32;22.40;;;9.70;;
84616;SDS011;74846;51.126;16.944;2024-01-30T05:04:00;25.40;;;10.90;;
84616;SDS011;74846;51.126;16.944;2024-01-30T05:06:28;17.60;;;8.80;;
84616;SDS011;74846;51.126;16.944;2024-01-30T05:08:57;15.30;;;8.30;;
84616;SDS011;74846;51.126;16.944;2024-01-30T05:11:25;19.80;;;8.60;;
84616;SDS011;74846;51.126;16.944;2024-01-30T05:13:53;21.50;;;9.00;;
84616;SDS011;74846;51.126;16.944;2024-01-30T05:16:21;20.20;;;9.70;;
84616;SDS011;74846;51.126;16.944;2024-01-30T05:18:50;17.00;;;8.60;;
84616;SDS011;74846;51.126;16.944;2024-01-30T05:21:18;22.20;;;9.80;;
84616;SDS011;74846;51.126;16.944;2024-01-30T05:23:46;14.90;;;8.40;;
84616;SDS011;74846;51.126;16.944;2024-01-30T05:26:14;17.90;;;8.60;;
84616;SDS011;74846;51.126;16.944;2024-01-30T05:28:42;26.10;;;9.60;;
84616;SDS011;74846;51.126;16.944;2024-01-30T05:31:12;18.20;;;9.10;;
84616;SDS011;74846;51.126;16.944;2024-01-30T05:33:40;16.70;;;9.30;;
84616;SDS011;74846;51.126;16.944;2024-01-30T05:36:11;26.70;;;12.00;;
84616;SDS011;74846;51.126;16.944;2024-01-30T05:38:39;19.80;;;9.80;;
84616;SDS011;74846;51.126;16.944;2024-01-30T05:41:08;21.40;;;9.10;;
84616;SDS011;74846;51.126;16.944;2024-01-30T05:43:36;19.00;;;8.00;;
84616;SDS011;74846;51.126;16.944;2024-01-30T05:46:04;15.00;;;7.30;;
84616;SDS011;74846;51.126;16.944;2024-01-30T05:48:32;17.70;;;8.10;;
84616;SDS011;74846;51.126;16.944;2024-01-30T05:51:00;17.90;;;8.30;;
84616;SDS011;74846;51.126;16.944;2024-01-30T05:53:28;12.30;;;7.30;;
84616;SDS011;74846;51.126;16.944;2024-01-30T05:55:56;15.70;;;8.50;;
84616;SDS011;74846;51.126;16.944;2024-01-30T05:58:24;15.60;;;8.20;;
84616;SDS011;74846;51.126;16.944;2024-01-30T06:00:52;15.00;;;7.20;;
84616;SDS011;74846;51.126;16.944;2024-01-30T06:03:20;19.20;;;9.10;;
84616;SDS011;74846;51.126;16.944;2024-01-30T06:05:48;15.20;;;7.80;;
84616;SDS011;74846;51.126;16.944;2024-01-30T06:08:16;17.60;;;9.60;;
84616;SDS011;74846;51.126;16.944;2024-01-30T06:10:45;15.30;;;7.20;;
84616;SDS011;74846;51.126;16.944;2024-01-30T06:13:12;25.50;;;11.40;;
84616;SDS011;74846;51.126;16.944;2024-01-30T06:15:40;24.60;;;12.80;;
84616;SDS011;74846;51.126;16.944;2024-01-30T06:18:08;25.80;;;12.50;;
84616;SDS011;74846;51.126;16.944;2024-01-30T06:20:37;27.70;;;13.00;;
84616;SDS011;74846;51.126;16.944;2024-01-30T06:23:05;27.40;;;11.50;;
84616;SDS011;74846;51.126;16.944;2024-01-30T06:25:33;31.80;;;12.50;;
84616;SDS011;74846;51.126;16.944;2024-01-30T06:28:01;14.40;;;8.60;;
84616;SDS011;74846;51.126;16.944;2024-01-30T06:30:29;24.20;;;11.40;;
84616;SDS011;74846;51.126;16.944;2024-01-30T06:32:57;28.00;;;12.20;;
84616;SDS011;74846;51.126;16.944;2024-01-30T06:35:25;26.60;;;10.60;;
84616;SDS011;74846;51.126;16.944;2024-01-30T06:37:53;23.10;;;11.20;;
84616;SDS011;74846;51.126;16.944;2024-01-30T06:40:21;26.70;;;11.60;;
84616;SDS011;74846;51.126;16.944;2024-01-30T06:42:49;25.60;;;12.10;;
84616;SDS011;74846;51.126;16.944;2024-01-30T06:45:17;24.80;;;11.70;;
84616;SDS011;74846;51.126;16.944;2024-01-30T06:47:45;22.60;;;9.90;;
84616;SDS011;74846;51.126;16.944;2024-01-30T06:50:14;36.00;;;15.20;;
84616;SDS011;74846;51.126;16.944;2024-01-30T06:52:42;29.80;;;13.00;;
84616;SDS011;74846;51.126;16.944;2024-01-30T06:55:10;28.20;;;12.50;;
84616;SDS011;74846;51.126;16.944;2024-01-30T06:57:38;26.00;;;13.00;;
84616;SDS011;74846;51.126;16.944;2024-01-30T07:00:06;31.40;;;12.80;;
84616;SDS011;74846;51.126;16.944;2024-01-30T07:02:34;30.50;;;14.30;;
84616;SDS011;74846;51.126;16.944;2024-01-30T07:05:02;26.50;;;12.60;;
84616;SDS011;74846;51.126;16.944;2024-01-30T07:07:31;27.30;;;11.60;;
84616;SDS011;74846;51.126;16.944;2024-01-30T07:09:59;24.60;;;11.70;;
84616;SDS011;74846;51.126;16.944;2024-01-30T07:12:27;22.40;;;11.30;;
84616;SDS011;74846;51.126;16.944;2024-01-30T07:14:55;25.40;;;11.90;;
84616;SDS011;74846;51.126;16.944;2024-01-30T07:17:24;23.50;;;11.20;;
84616;SDS011;74846;51.126;16.944;2024-01-30T07:19:52;25.60;;;11.80;;
84616;SDS011;74846;51.126;16.944;2024-01-30T07:22:20;26.20;;;12.30;;
84616;SDS011;74846;51.126;16.944;2024-01-30T07:24:48;30.80;;;11.40;;
84616;SDS011;74846;51.126;16.944;2024-01-30T07:27:17;23.60;;;11.10;;
84616;SDS011;74846;51.126;16.944;2024-01-30T07:29:45;28.90;;;13.00;;
84616;SDS011;74846;51.126;16.944;2024-01-30T07:32:13;35.60;;;14.40;;
84616;SDS011;74846;51.126;16.944;2024-01-30T07:34:41;23.30;;;10.20;;
84616;SDS011;74846;51.126;16.944;2024-01-30T07:37:29;29.20;;;11.80;;
84616;SDS011;74846;51.126;16.944;2024-01-30T07:39:57;20.00;;;10.10;;
84616;SDS011;74846;51.126;16.944;2024-01-30T07:42:25;22.20;;;9.50;;
84616;SDS011;74846;51.126;16.944;2024-01-30T07:44:53;21.70;;;9.30;;
84616;SDS011;74846;51.126;16.944;2024-01-30T07:47:21;21.80;;;9.70;;
84616;SDS011;74846;51.126;16.944;2024-01-30T07:49:49;18.60;;;9.30;;
84616;SDS011;74846;51.126;16.944;2024-01-30T07:52:17;19.10;;;9.10;;
84616;SDS011;74846;51.126;16.944;2024-01-30T07:54:46;16.60;;;8.90;;
84616;SDS011;74846;51.126;16.944;2024-01-30T07:57:14;16.70;;;10.00;;
84616;SDS011;74846;51.126;16.944;2024-01-30T07:59:42;24.70;;;12.90;;
84616;SDS011;74846;51.126;16.944;2024-01-30T08:02:12;14.10;;;7.10;;
84616;SDS011;74846;51.126;16.944;2024-01-30T08:04:41;14.70;;;7.70;;
84616;SDS011;74846;51.126;16.944;2024-01-30T08:07:09;23.00;;;11.70;;
84616;SDS011;74846;51.126;16.944;2024-01-30T08:09:37;13.40;;;7.80;;
84616;SDS011;74846;51.126;16.944;2024-01-30T08:12:05;18.50;;;7.90;;
84616;SDS011;74846;51.126;16.944;2024-01-30T08:14:34;16.00;;;7.30;;
84616;SDS011;74846;51.126;16.944;2024-01-30T08:17:02;21.20;;;10.80;;
84616;SDS011;74846;51.126;16.944;2024-01-30T08:19:30;17.50;;;7.10;;
84616;SDS011;74846;51.126;16.944;2024-01-30T08:21:58;12.10;;;7.60;;
84616;SDS011;74846;51.126;16.944;2024-01-30T08:24:26;16.70;;;7.10;;
84616;SDS011;74846;51.126;16.944;2024-01-30T08:26:54;16.80;;;8.00;;
84616;SDS011;74846;51.126;16.944;2024-01-30T08:29:22;14.90;;;6.80;;
84616;SDS011;74846;51.126;16.944;2024-01-30T08:31:50;12.50;;;6.30;;
84616;SDS011;74846;51.126;16.944;2024-01-30T08:34:18;17.50;;;9.60;;
84616;SDS011;74846;51.126;16.944;2024-01-30T08:36:46;11.40;;;6.40;;
84616;SDS011;74846;51.126;16.944;2024-01-30T08:39:15;13.40;;;7.20;;
84616;SDS011;74846;51.126;16.944;2024-01-30T08:41:43;16.10;;;8.40;;
84616;SDS011;74846;51.126;16.944;2024-01-30T08:44:11;15.40;;;8.20;;
84616;SDS011;74846;51.126;16.944;2024-01-30T08:46:39;22.20;;;10.50;;
84616;SDS011;74846;51.126;16.944;2024-01-30T08:49:07;30.50;;;15.10;;
84616;SDS011;74846;51.126;16.944;2024-01-30T08:51:36;17.80;;;8.90;;
84616;SDS011;74846;51.126;16.944;2024-01-30T08:54:04;13.60;;;7.20;;
84616;SDS011;74846;51.126;16.944;2024-01-30T08:56:32;15.70;;;7.60;;
84616;SDS011;74846;51.126;16.944;2024-01-30T08:59:00;13.20;;;6.70;;
84616;SDS011;74846;51.126;16.944;2024-01-30T09:01:28;16.10;;;6.50;;
84616;SDS011;74846;51.126;16.944;2024-01-30T09:03:56;16.10;;;8.50;;
84616;SDS011;74846;51.126;16.944;2024-01-30T09:06:24;14.60;;;7.90;;
84616;SDS011;74846;51.126;16.944;2024-01-30T09:08:55;12.10;;;6.50;;
84616;SDS011;74846;51.126;16.944;2024-01-30T09:11:25;28.60;;;12.60;;
84616;SDS011;74846;51.126;16.944;2024-01-30T09:13:53;24.20;;;9.00;;
84616;SDS011;74846;51.126;16.944;2024-01-30T09:16:21;14.80;;;6.90;;
84616;SDS011;74846;51.126;16.944;2024-01-30T09:18:49;14.70;;;6.80;;
84616;SDS011;74846;51.126;16.944;2024-01-30T09:21:17;37.20;;;16.80;;
84616;SDS011;74846;51.126;16.944;2024-01-30T09:23:45;15.00;;;7.20;;
84616;SDS011;74846;51.126;16.944;2024-01-30T09:26:13;17.40;;;8.30;;
84616;SDS011;74846;51.126;16.944;2024-01-30T09:28:41;22.00;;;8.00;;
84616;SDS011;74846;51.126;16.944;2024-01-30T09:31:10;27.00;;;11.40;;
84616;SDS011;74846;51.126;16.944;2024-01-30T09:33:39;14.50;;;7.00;;
84616;SDS011;74846;51.126;16.944;2024-01-30T09:36:07;10.20;;;4.90;;
84616;SDS011;74846;51.126;16.944;2024-01-30T09:38:36;16.30;;;6.90;;
84616;SDS011;74846;51.126;16.944;2024-01-30T09:41:04;11.10;;;5.70;;
84616;SDS011;74846;51.126;16.944;2024-01-30T09:43:36;8.30;;;4.20;;
84616;SDS011;74846;51.126;16.944;2024-01-30T09:46:08;13.00;;;5.40;;
84616;SDS011;74846;51.126;16.944;2024-01-30T09:48:46;11.40;;;5.50;;
84616;SDS011;74846;51.126;16.944;2024-01-30T09:51:15;8.20;;;4.60;;
84616;SDS011;74846;51.126;16.944;2024-01-30T09:53:45;10.00;;;5.00;;
84616;SDS011;74846;51.126;16.944;2024-01-30T09:56:13;11.30;;;4.90;;
84616;SDS011;74846;51.126;16.944;2024-01-30T09:58:41;9.60;;;4.70;;
84616;SDS011;74846;51.126;16.944;2024-01-30T10:01:09;10.80;;;5.10;;
84616;SDS011;74846;51.126;16.944;2024-01-30T10:03:38;13.20;;;7.60;;
84616;SDS011;74846;51.126;16.944;2024-01-30T10:06:06;14.00;;;5.00;;
84616;SDS011;74846;51.126;16.944;2024-01-30T10:08:35;12.50;;;5.30;;
84616;SDS011;74846;51.126;16.944;2024-01-30T10:11:04;11.50;;;6.30;;
84616;SDS011;74846;51.126;16.944;2024-01-30T10:13:32;11.70;;;5.50;;
84616;SDS011;74846;51.126;16.944;2024-01-30T10:16:00;14.00;;;6.50;;
84616;SDS011;74846;51.126;16.944;2024-01-30T10:18:30;12.10;;;5.80;;
84616;SDS011;74846;51.126;16.944;2024-01-30T10:20:59;10.00;;;5.60;;
84616;SDS011;74846;51.126;16.944;2024-01-30T10:23:27;10.30;;;5.00;;
84616;SDS011;74846;51.126;16.944;2024-01-30T10:26:05;10.80;;;4.80;;
84616;SDS011;74846;51.126;16.944;2024-01-30T10:28:35;9.70;;;5.40;;
84616;SDS011;74846;51.126;16.944;2024-01-30T10:31:03;8.00;;;4.30;;
84616;SDS011;74846;51.126;16.944;2024-01-30T10:33:33;8.40;;;4.70;;
84616;SDS011;74846;51.126;16.944;2024-01-30T10:36:02;10.00;;;4.60;;
84616;SDS011;74846;51.126;16.944;2024-01-30T10:38:32;10.30;;;4.40;;
84616;SDS011;74846;51.126;16.944;2024-01-30T10:41:01;8.50;;;4.10;;
84616;SDS011;74846;51.126;16.944;2024-01-30T10:43:31;7.00;;;4.10;;
84616;SDS011;74846;51.126;16.944;2024-01-30T10:46:09;11.00;;;4.00;;
84616;SDS011;74846;51.126;16.944;2024-01-30T10:48:42;7.60;;;3.80;;
84616;SDS011;74846;51.126;16.944;2024-01-30T10:51:12;10.70;;;4.40;;
84616;SDS011;74846;51.126;16.944;2024-01-30T10:53:42;8.80;;;3.80;;
84616;SDS011;74846;51.126;16.944;2024-01-30T10:56:14;8.00;;;4.50;;
84616;SDS011;74846;51.126;16.944;2024-01-30T10:58:43;11.40;;;4.00;;
84616;SDS011;74846;51.126;16.944;2024-01-30T11:01:12;7.60;;;4.60;;
84616;SDS011;74846;51.126;16.944;2024-01-30T11:03:40;9.90;;;3.90;;
84616;SDS011;74846;51.126;16.944;2024-01-30T11:06:12;13.10;;;5.50;;
84616;SDS011;74846;51.126;16.944;2024-01-30T11:08:45;9.50;;;3.70;;
84616;SDS011;74846;51.126;16.944;2024-01-30T11:11:13;6.50;;;3.60;;
84616;SDS011;74846;51.126;16.944;2024-01-30T11:13:45;7.90;;;4.10;;
84616;SDS011;74846;51.126;16.944;2024-01-30T11:16:13;11.30;;;6.20;;
84616;SDS011;74846;51.126;16.944;2024-01-30T11:18:41;7.30;;;4.00;;
84616;SDS011;74846;51.126;16.944;2024-01-30T11:21:09;16.50;;;9.20;;
84616;SDS011;74846;51.126;16.944;2024-01-30T11:23:41;9.00;;;5.10;;
84616;SDS011;74846;51.126;16.944;2024-01-30T11:26:10;8.20;;;4.60;;
84616;SDS011;74846;51.126;16.944;2024-01-30T11:28:39;7.90;;;5.30;;
84616;SDS011;74846;51.126;16.944;2024-01-30T11:31:07;7.50;;;5.20;;
84616;SDS011;74846;51.126;16.944;2024-01-30T11:33:35;11.60;;;6.50;;
84616;SDS011;74846;51.126;16.944;2024-01-30T11:36:04;10.50;;;6.10;;
84616;SDS011;74846;51.126;16.944;2024-01-30T11:38:34;6.90;;;4.70;;
84616;SDS011;74846;51.126;16.944;2024-01-30T11:41:02;11.60;;;5.00;;
84616;SDS011;74846;51.126;16.944;2024-01-30T11:43:32;10.80;;;5.70;;
84616;SDS011;74846;51.126;16.944;2024-01-30T11:46:01;7.90;;;4.70;;
84616;SDS011;74846;51.126;16.944;2024-01-30T11:48:30;11.10;;;5.10;;
84616;SDS011;74846;51.126;16.944;2024-01-30T11:50:58;9.00;;;4.90;;
84616;SDS011;74846;51.126;16.944;2024-01-30T11:53:27;8.00;;;4.20;;
84616;SDS011;74846;51.126;16.944;2024-01-30T11:55:55;8.50;;;4.30;;
84616;SDS011;74846;51.126;16.944;2024-01-30T11:58:24;10.40;;;4.40;;
84616;SDS011;74846;51.126;16.944;2024-01-30T12:00:54;8.10;;;4.70;;
84616;SDS011;74846;51.126;16.944;2024-01-30T12:03:24;7.10;;;4.10;;
84616;SDS011;74846;51.126;16.944;2024-01-30T12:05:56;9.90;;;4.50;;
84616;SDS011;74846;51.126;16.944;2024-01-30T12:08:26;13.50;;;4.30;;
84616;SDS011;74846;51.126;16.944;2024-01-30T12:10:56;8.80;;;4.70;;
84616;SDS011;74846;51.126;16.944;2024-01-30T12:13:26;7.40;;;4.20;;
84616;SDS011;74846;51.126;16.944;2024-01-30T12:16:00;7.50;;;4.60;;
84616;SDS011;74846;51.126;16.944;2024-01-30T12:18:29;10.60;;;5.90;;
84616;SDS011;74846;51.126;16.944;2024-01-30T12:21:00;8.80;;;4.30;;
84616;SDS011;74846;51.126;16.944;2024-01-30T12:23:29;7.80;;;4.40;;
84616;SDS011;74846;51.126;16.944;2024-01-30T12:25:57;8.30;;;4.20;;
84616;SDS011;74846;51.126;16.944;2024-01-30T12:28:25;7.70;;;4.50;;
84616;SDS011;74846;51.126;16.944;2024-01-30T12:30:57;8.70;;;4.90;;
84616;SDS011;74846;51.126;16.944;2024-01-30T12:33:31;9.80;;;4.70;;
84616;SDS011;74846;51.126;16.944;2024-01-30T12:36:02;7.10;;;4.20;;
84616;SDS011;74846;51.126;16.944;2024-01-30T12:38:31;9.20;;;4.20;;
84616;SDS011;74846;51.126;16.944;2024-01-30T12:40:59;9.40;;;4.30;;
84616;SDS011;74846;51.126;16.944;2024-01-30T12:43:28;8.20;;;4.70;;
84616;SDS011;74846;51.126;16.944;2024-01-30T12:46:05;14.30;;;9.10;;
84616;SDS011;74846;51.126;16.944;2024-01-30T12:48:34;9.60;;;5.70;;
84616;SDS011;74846;51.126;16.944;2024-01-30T12:51:02;9.50;;;4.00;;
84616;SDS011;74846;51.126;16.944;2024-01-30T12:53:30;7.50;;;5.20;;
84616;SDS011;74846;51.126;16.944;2024-01-30T12:55:58;9.00;;;4.10;;
84616;SDS011;74846;51.126;16.944;2024-01-30T12:58:26;9.00;;;4.50;;
84616;SDS011;74846;51.126;16.944;2024-01-30T13:00:55;7.80;;;4.90;;
84616;SDS011;74846;51.126;16.944;2024-01-30T13:03:23;8.90;;;4.80;;
84616;SDS011;74846;51.126;16.944;2024-01-30T13:05:51;7.40;;;4.60;;
84616;SDS011;74846;51.126;16.944;2024-01-30T13:08:20;7.20;;;4.00;;
84616;SDS011;74846;51.126;16.944;2024-01-30T13:10:48;9.30;;;4.60;;
84616;SDS011;74846;51.126;16.944;2024-01-30T13:13:17;7.50;;;4.00;;
84616;SDS011;74846;51.126;16.944;2024-01-30T13:15:47;7.80;;;4.20;;
84616;SDS011;74846;51.126;16.944;2024-01-30T13:18:16;9.60;;;4.70;;
84616;SDS011;74846;51.126;16.944;2024-01-30T13:20:44;7.50;;;4.20;;
84616;SDS011;74846;51.126;16.944;2024-01-30T13:23:12;8.30;;;4.60;;
84616;SDS011;74846;51.126;16.944;2024-01-30T13:25:40;10.90;;;4.60;;
84616;SDS011;74846;51.126;16.944;2024-01-30T13:28:08;6.40;;;4.10;;
84616;SDS011;74846;51.126;16.944;2024-01-30T13:30:36;10.40;;;4.20;;
84616;SDS011;74846;51.126;16.944;2024-01-30T13:33:04;8.50;;;4.60;;
84616;SDS011;74846;51.126;16.944;2024-01-30T13:35:32;8.90;;;4.60;;
84616;SDS011;74846;51.126;16.944;2024-01-30T13:38:00;11.00;;;4.60;;
84616;SDS011;74846;51.126;16.944;2024-01-30T13:40:28;10.20;;;4.50;;
84616;SDS011;74846;51.126;16.944;2024-01-30T13:42:56;11.50;;;5.60;;
84616;SDS011;74846;51.126;16.944;2024-01-30T13:45:25;9.80;;;5.20;;
84616;SDS011;74846;51.126;16.944;2024-01-30T13:47:54;17.90;;;5.50;;
84616;SDS011;74846;51.126;16.944;2024-01-30T13:50:23;11.40;;;6.30;;
84616;SDS011;74846;51.126;16.944;2024-01-30T13:52:51;11.10;;;5.10;;
84616;SDS011;74846;51.126;16.944;2024-01-30T13:55:19;11.80;;;6.00;;
84616;SDS011;74846;51.126;16.944;2024-01-30T13:57:47;18.00;;;6.00;;
84616;SDS011;74846;51.126;16.944;2024-01-30T14:00:18;17.10;;;7.00;;
84616;SDS011;74846;51.126;16.944;2024-01-30T14:02:46;13.30;;;6.60;;
84616;SDS011;74846;51.126;16.944;2024-01-30T14:05:14;13.00;;;6.20;;
84616;SDS011;74846;51.126;16.944;2024-01-30T14:07:43;14.80;;;7.40;;
84616;SDS011;74846;51.126;16.944;2024-01-30T14:10:11;12.40;;;7.70;;
84616;SDS011;74846;51.126;16.944;2024-01-30T14:12:42;13.40;;;6.80;;
84616;SDS011;74846;51.126;16.944;2024-01-30T14:15:15;13.30;;;7.20;;
84616;SDS011;74846;51.126;16.944;2024-01-30T14:17:55;13.90;;;7.20;;
84616;SDS011;74846;51.126;16.944;2024-01-30T14:20:26;15.70;;;7.00;;
84616;SDS011;74846;51.126;16.944;2024-01-30T14:22:54;16.90;;;7.20;;
84616;SDS011;74846;51.126;16.944;2024-01-30T14:25:24;13.30;;;7.00;;
84616;SDS011;74846;51.126;16.944;2024-01-30T14:27:52;19.00;;;7.10;;
84616;SDS011;74846;51.126;16.944;2024-01-30T14:30:21;11.30;;;6.60;;